createdAt,value
2022-12-12T00:01:35.148Z,0.00
2022-12-12T00:04:02.327Z,0.00
2022-12-12T00:06:29.975Z,0.00
2022-12-12T00:08:56.809Z,0.00
2022-12-12T00:11:25.308Z,0.00
2022-12-12T00:13:52.961Z,0.00
2022-12-12T00:16:21.525Z,0.00
2022-12-12T00:18:48.304Z,0.00
2022-12-12T00:21:22.634Z,-0.10
2022-12-12T00:23:49.378Z,-0.10
2022-12-12T00:26:22.893Z,-0.10
2022-12-12T00:28:50.559Z,-0.10
2022-12-12T00:31:18.480Z,-0.10
2022-12-12T00:33:47.864Z,-0.10
2022-12-12T00:36:15.765Z,-0.10
2022-12-12T00:38:42.438Z,-0.10
2022-12-12T00:41:09.974Z,-0.10
2022-12-12T00:43:37.663Z,-0.10
2022-12-12T00:46:04.584Z,-0.20
2022-12-12T00:48:32.248Z,-0.20
2022-12-12T00:51:05.697Z,-0.20
2022-12-12T00:53:32.640Z,-0.20
2022-12-12T00:55:59.720Z,-0.20
2022-12-12T00:58:27.440Z,-0.20
2022-12-12T01:00:54.634Z,-0.30
2022-12-12T01:03:22.358Z,-0.40
2022-12-12T01:05:49.182Z,-0.50
2022-12-12T01:08:16.642Z,-0.60
2022-12-12T01:10:43.278Z,-0.70
2022-12-12T01:13:10.665Z,-0.80
2022-12-12T01:15:37.256Z,-0.90
2022-12-12T01:18:04.566Z,-1.10
2022-12-12T01:20:31.373Z,-1.10
2022-12-12T01:22:58.664Z,-1.20
2022-12-12T01:25:25.287Z,-1.30
2022-12-12T01:27:52.633Z,-1.30
2022-12-12T01:30:21.737Z,-1.40
2022-12-12T01:32:49.394Z,-1.50
2022-12-12T01:35:16.125Z,-1.50
2022-12-12T01:37:43.635Z,-1.60
2022-12-12T01:40:18.118Z,-1.70
2022-12-12T01:42:45.841Z,-1.70
2022-12-12T01:45:50.119Z,-1.70
2022-12-12T01:48:18.642Z,-1.80
2022-12-12T01:50:45.623Z,-1.80
2022-12-12T01:53:15.798Z,-1.80
2022-12-12T01:55:42.762Z,-1.90
2022-12-12T01:58:09.789Z,-1.90
2022-12-12T02:00:36.507Z,-1.90
2022-12-12T02:03:03.955Z,-1.90
2022-12-12T02:05:43.823Z,-1.90
2022-12-12T02:08:13.139Z,-2.00
2022-12-12T02:10:40.019Z,-2.00
2022-12-12T02:13:11.913Z,-2.00
2022-12-12T02:16:12.652Z,-2.00
2022-12-12T02:19:07.584Z,-1.90
2022-12-12T02:21:35.571Z,-1.90
2022-12-12T02:24:26.615Z,-1.90
2022-12-12T02:27:17.784Z,-1.90
2022-12-12T02:29:59.653Z,-1.90
2022-12-12T02:32:45.548Z,-1.90
2022-12-12T02:35:31.424Z,-1.90
2022-12-12T02:38:29.597Z,-1.90
2022-12-12T02:41:08.184Z,-1.90
2022-12-12T02:43:42.444Z,-1.90
2022-12-12T02:46:19.953Z,-2.00
2022-12-12T02:49:00.818Z,-2.00
2022-12-12T02:51:29.438Z,-2.00
2022-12-12T02:53:59.505Z,-2.10
2022-12-12T02:56:48.881Z,-2.10
2022-12-12T02:59:37.762Z,-2.10
2022-12-12T03:02:14.031Z,-2.10
2022-12-12T03:05:23.869Z,-2.00
2022-12-12T03:07:57.640Z,-2.00
2022-12-12T03:10:50.685Z,-1.90
2022-12-12T03:13:28.306Z,-1.90
2022-12-12T03:16:16.641Z,-1.80
2022-12-12T03:19:01.681Z,-1.80
2022-12-12T03:21:46.124Z,-1.70
2022-12-12T03:24:37.677Z,-1.70
2022-12-12T03:27:12.068Z,-1.70
2022-12-12T03:29:44.647Z,-1.60
2022-12-12T03:32:24.553Z,-1.60
2022-12-12T03:34:59.827Z,-1.50
2022-12-12T03:37:33.461Z,-1.50
2022-12-12T03:40:11.250Z,-1.50
2022-12-12T03:42:51.947Z,-1.50
2022-12-12T03:45:27.501Z,-1.40
2022-12-12T03:48:04.280Z,-1.40
2022-12-12T03:50:36.436Z,-1.30
2022-12-12T03:53:15.419Z,-1.40
2022-12-12T03:56:19.544Z,-1.40
2022-12-12T03:59:03.129Z,-1.40
2022-12-12T04:01:40.668Z,-1.40
2022-12-12T04:04:28.488Z,-1.40
2022-12-12T04:07:21.190Z,-1.40
2022-12-12T04:10:06.844Z,-1.40
2022-12-12T04:13:13.679Z,-1.40
2022-12-12T04:16:13.639Z,-1.50
2022-12-12T04:18:47.133Z,-1.50
2022-12-12T04:21:46.629Z,-1.50
2022-12-12T04:24:25.805Z,-1.50
2022-12-12T04:27:08.404Z,-1.50
2022-12-12T04:29:45.998Z,-1.50
2022-12-12T04:32:34.826Z,-1.50
2022-12-12T04:35:22.793Z,-1.60
2022-12-12T04:37:59.997Z,-1.60
2022-12-12T04:40:34.702Z,-1.60
2022-12-12T04:43:25.930Z,-1.60
2022-12-12T04:46:04.630Z,-1.70
2022-12-12T04:48:38.624Z,-1.70
2022-12-12T04:51:09.039Z,-1.80
2022-12-12T04:53:41.975Z,-1.90
2022-12-12T04:56:13.492Z,-1.90
2022-12-12T04:58:41.381Z,-1.90
2022-12-12T05:01:22.380Z,-2.00
2022-12-12T05:04:02.136Z,-2.00
2022-12-12T05:06:34.086Z,-2.10
2022-12-12T05:09:02.156Z,-2.20
2022-12-12T05:11:29.171Z,-2.20
2022-12-12T05:13:56.532Z,-2.30
2022-12-12T05:16:35.134Z,-2.40
2022-12-12T05:19:03.227Z,-2.40
2022-12-12T05:21:29.826Z,-2.40
2022-12-12T05:23:57.083Z,-2.40
2022-12-12T05:26:26.857Z,-2.50
2022-12-12T05:28:55.172Z,-2.50
2022-12-12T05:31:22.355Z,-2.50
2022-12-12T05:33:49.799Z,-2.50
2022-12-12T05:36:16.792Z,-2.50
2022-12-12T05:38:44.521Z,-2.60
2022-12-12T05:41:11.520Z,-2.70
2022-12-12T05:43:38.892Z,-2.70
2022-12-12T05:46:06.522Z,-2.70
2022-12-12T05:48:34.341Z,-2.80
2022-12-12T05:51:02.273Z,-2.90
2022-12-12T05:53:30.034Z,-2.90
2022-12-12T05:55:57.538Z,-2.90
2022-12-12T05:58:24.888Z,-3.00
2022-12-12T06:00:52.329Z,-3.00
2022-12-12T06:03:19.728Z,-3.00
2022-12-12T06:05:46.377Z,-3.10
2022-12-12T06:08:14.346Z,-3.10
2022-12-12T06:10:41.085Z,-3.10
2022-12-12T06:13:08.355Z,-3.20
2022-12-12T06:15:38.544Z,-3.20
2022-12-12T06:18:05.928Z,-3.20
2022-12-12T06:20:32.613Z,-3.30
2022-12-12T06:22:59.840Z,-3.30
2022-12-12T06:25:26.559Z,-3.40
2022-12-12T06:27:54.020Z,-3.40
2022-12-12T06:30:20.907Z,-3.40
2022-12-12T06:32:48.167Z,-3.40
2022-12-12T06:35:15.170Z,-3.40
2022-12-12T06:37:42.588Z,-3.40
2022-12-12T06:40:09.884Z,-3.40
2022-12-12T06:42:37.111Z,-3.40
2022-12-12T06:45:04.159Z,-3.40
2022-12-12T06:47:31.626Z,-3.40
2022-12-12T06:49:58.637Z,-3.40
2022-12-12T06:52:25.592Z,-3.40
2022-12-12T06:54:52.178Z,-3.40
2022-12-12T06:57:19.441Z,-3.40
2022-12-12T06:59:46.119Z,-3.40
2022-12-12T07:02:13.427Z,-3.30
2022-12-12T07:04:40.059Z,-3.30
2022-12-12T07:07:07.289Z,-3.30
2022-12-12T07:09:33.909Z,-3.30
2022-12-12T07:12:01.226Z,-3.30
2022-12-12T07:14:27.787Z,-3.30
2022-12-12T07:16:55.429Z,-3.30
2022-12-12T07:19:22.696Z,-3.30
2022-12-12T07:21:50.025Z,-3.40
2022-12-12T07:24:16.681Z,-3.40
2022-12-12T07:26:43.989Z,-3.40
2022-12-12T07:29:11.053Z,-3.50
2022-12-12T07:31:38.474Z,-3.50
2022-12-12T07:34:05.197Z,-3.50
2022-12-12T07:36:32.556Z,-3.50
2022-12-12T07:38:59.249Z,-3.60
2022-12-12T07:41:26.762Z,-3.60
2022-12-12T07:43:53.391Z,-3.60
2022-12-12T07:46:24.077Z,-3.60
2022-12-12T07:48:51.717Z,-3.60
2022-12-12T07:51:19.957Z,-3.60
2022-12-12T07:53:46.770Z,-3.60
2022-12-12T07:56:17.826Z,-3.60
2022-12-12T07:58:44.563Z,-3.60
2022-12-12T08:01:20.876Z,-3.60
2022-12-12T08:03:48.710Z,-3.60
2022-12-12T08:06:17.168Z,-3.60
2022-12-12T08:08:44.741Z,-3.60
2022-12-12T08:11:14.745Z,-3.70
2022-12-12T08:13:41.567Z,-3.70
2022-12-12T08:16:17.094Z,-3.70
2022-12-12T08:18:44.240Z,-3.60
2022-12-12T08:21:13.679Z,-3.60
2022-12-12T08:23:41.211Z,-3.50
2022-12-12T08:26:10.625Z,-3.40
2022-12-12T08:28:38.355Z,-3.40
2022-12-12T08:31:05.363Z,-3.30
2022-12-12T08:33:32.683Z,-3.30
2022-12-12T08:35:59.530Z,-3.30
2022-12-12T08:38:27.107Z,-3.20
2022-12-12T08:40:53.674Z,-3.10
2022-12-12T08:43:21.153Z,-3.10
2022-12-12T08:45:47.926Z,-3.00
2022-12-12T08:48:15.410Z,-2.90
2022-12-12T08:50:42.303Z,-2.80
2022-12-12T08:53:09.694Z,-2.80
2022-12-12T08:55:36.395Z,-2.70
2022-12-12T08:58:04.446Z,-2.70
2022-12-12T09:00:31.226Z,-2.60
2022-12-12T09:02:58.554Z,-2.60
2022-12-12T09:05:25.172Z,-2.50
2022-12-12T09:07:52.536Z,-2.40
2022-12-12T09:10:19.379Z,-2.40
2022-12-12T09:12:46.776Z,-2.30
2022-12-12T09:15:14.423Z,-2.20
2022-12-12T09:17:41.983Z,-2.20
2022-12-12T09:20:09.283Z,-2.10
2022-12-12T09:22:36.559Z,-2.00
2022-12-12T09:25:04.495Z,-1.90
2022-12-12T09:27:32.260Z,-1.90
2022-12-12T09:29:59.189Z,-1.80
2022-12-12T09:32:26.552Z,-1.70
2022-12-12T09:34:53.215Z,-1.60
2022-12-12T09:37:20.556Z,-1.50
2022-12-12T09:39:47.165Z,-1.50
2022-12-12T09:42:27.757Z,-1.40
2022-12-12T09:45:00.064Z,-1.40
2022-12-12T09:47:45.032Z,-1.30
2022-12-12T09:50:18.963Z,-1.30
2022-12-12T09:52:45.789Z,-1.20
2022-12-12T09:55:31.177Z,-1.20
2022-12-12T09:58:03.770Z,-1.10
2022-12-12T10:00:36.367Z,-1.10
2022-12-12T10:03:09.425Z,-1.10
2022-12-12T10:06:20.667Z,-1.00
2022-12-12T10:08:53.183Z,-1.00
2022-12-12T10:11:54.824Z,-0.90
2022-12-12T10:14:38.493Z,-0.90
2022-12-12T10:17:23.591Z,-0.80
2022-12-12T10:19:53.852Z,-0.80
2022-12-12T10:22:43.283Z,-0.70
2022-12-12T10:25:25.268Z,-0.70
2022-12-12T10:28:12.006Z,-0.60
2022-12-12T10:31:12.417Z,-0.60
2022-12-12T10:34:20.900Z,-0.50
2022-12-12T10:37:09.973Z,-0.50
2022-12-12T10:40:05.108Z,-0.40
2022-12-12T10:42:54.268Z,-0.30
2022-12-12T10:45:48.668Z,-0.30
2022-12-12T10:48:16.427Z,-0.30
2022-12-12T10:50:48.785Z,-0.20
2022-12-12T10:53:15.697Z,-0.20
2022-12-12T10:56:04.301Z,-0.20
2022-12-12T10:58:42.427Z,-0.10
2022-12-12T11:01:12.909Z,-0.10
2022-12-12T11:03:44.895Z,-0.10
2022-12-12T11:06:15.821Z,-0.10
2022-12-12T11:08:54.959Z,0.00
2022-12-12T11:11:28.045Z,0.10
2022-12-12T11:13:57.409Z,0.10
2022-12-12T11:16:28.202Z,0.10
2022-12-12T11:19:18.172Z,0.20
2022-12-12T11:21:46.532Z,0.20
2022-12-12T11:24:16.270Z,0.20
2022-12-12T11:26:58.682Z,0.30
2022-12-12T11:29:44.598Z,0.30
2022-12-12T11:32:19.429Z,0.30
2022-12-12T11:34:51.241Z,0.40
2022-12-12T11:37:21.994Z,0.40
2022-12-12T11:39:53.702Z,0.40
2022-12-12T11:42:25.829Z,0.50
2022-12-12T11:45:03.451Z,0.50
2022-12-12T11:47:38.839Z,0.50
2022-12-12T11:50:26.974Z,0.50
2022-12-12T11:53:01.857Z,0.60
2022-12-12T11:55:45.590Z,0.60
2022-12-12T11:58:28.379Z,0.60
2022-12-12T12:01:21.758Z,0.60
2022-12-12T12:04:07.177Z,0.60
2022-12-12T12:06:47.471Z,0.60
2022-12-12T12:09:28.865Z,0.70
2022-12-12T12:12:01.675Z,0.80
2022-12-12T12:14:40.283Z,0.80
2022-12-12T12:17:49.823Z,0.90
2022-12-12T12:20:47.688Z,1.00
2022-12-12T12:23:42.542Z,1.00
2022-12-12T12:26:32.447Z,1.00
2022-12-12T12:29:37.400Z,1.10
2022-12-12T12:32:30.324Z,1.10
2022-12-12T12:35:31.887Z,1.10
2022-12-12T12:38:02.148Z,1.10
2022-12-12T12:41:04.665Z,1.10
2022-12-12T12:43:59.650Z,1.10
2022-12-12T12:46:37.247Z,1.10
2022-12-12T12:49:47.208Z,1.10
2022-12-12T12:52:28.021Z,1.10
2022-12-12T12:54:58.131Z,1.10
2022-12-12T12:57:34.599Z,1.10
2022-12-12T13:00:15.843Z,1.10
2022-12-12T13:02:56.687Z,1.10
2022-12-12T13:05:41.562Z,1.10
2022-12-12T13:08:32.356Z,1.10
2022-12-12T13:11:06.557Z,1.00
2022-12-12T13:13:37.078Z,1.00
2022-12-12T13:16:12.802Z,1.00
2022-12-12T13:18:45.509Z,1.00
2022-12-12T13:21:40.798Z,1.00
2022-12-12T13:24:41.364Z,1.00
2022-12-12T13:27:26.499Z,1.00
2022-12-12T13:30:00.799Z,0.90
2022-12-12T13:32:52.284Z,0.90
2022-12-12T13:35:28.836Z,0.90
2022-12-12T13:37:57.019Z,0.90
2022-12-12T13:40:25.246Z,0.80
2022-12-12T13:42:57.521Z,0.90
2022-12-12T13:45:33.575Z,0.80
2022-12-12T13:48:03.930Z,0.90
2022-12-12T13:50:30.904Z,0.90
2022-12-12T13:53:07.216Z,0.80
2022-12-12T13:55:42.884Z,0.80
2022-12-12T13:58:17.433Z,0.80
2022-12-12T14:00:45.124Z,0.80
2022-12-12T14:03:12.642Z,0.90
2022-12-12T14:05:48.093Z,0.80
2022-12-12T14:08:15.425Z,0.80
2022-12-12T14:10:50.438Z,0.80
2022-12-12T14:13:23.279Z,0.80
2022-12-12T14:15:59.438Z,0.80
2022-12-12T14:18:30.859Z,0.80
2022-12-12T14:21:08.021Z,0.90
2022-12-12T14:23:56.398Z,0.90
2022-12-12T14:26:29.242Z,0.90
2022-12-12T14:29:17.931Z,0.80
2022-12-12T14:32:01.229Z,0.80
2022-12-12T14:34:34.542Z,0.70
2022-12-12T14:37:18.999Z,0.60
2022-12-12T14:40:16.750Z,0.60
2022-12-12T14:43:16.455Z,0.50
2022-12-12T14:45:49.695Z,0.40
2022-12-12T14:48:25.551Z,0.30
2022-12-12T14:51:09.255Z,0.40
2022-12-12T14:53:43.811Z,0.30
2022-12-12T14:56:56.107Z,0.30
2022-12-12T14:59:38.068Z,0.20
2022-12-12T15:02:38.726Z,0.20
2022-12-12T15:05:07.976Z,0.10
2022-12-12T15:07:38.514Z,0.00
2022-12-12T15:10:26.387Z,-0.10
2022-12-12T15:12:53.269Z,-0.10
2022-12-12T15:15:27.603Z,-0.20
2022-12-12T15:17:56.834Z,-0.30
2022-12-12T15:20:30.167Z,-0.30
2022-12-12T15:22:58.506Z,-0.40
2022-12-12T15:25:32.646Z,-0.50
2022-12-12T15:28:01.885Z,-0.60
2022-12-12T15:30:40.565Z,-0.60
2022-12-12T15:33:19.758Z,-0.80
2022-12-12T15:35:50.466Z,-0.90
2022-12-12T15:38:17.665Z,-1.00
2022-12-12T15:40:49.978Z,-1.10
2022-12-12T15:43:20.722Z,-1.20
2022-12-12T15:46:13.848Z,-1.30
2022-12-12T15:48:45.450Z,-1.30
2022-12-12T15:51:13.280Z,-1.40
2022-12-12T15:53:46.045Z,-1.50
2022-12-12T15:56:24.154Z,-1.60
2022-12-12T15:59:05.182Z,-1.60
2022-12-12T16:01:31.972Z,-1.60
2022-12-12T16:04:12.006Z,-1.60
2022-12-12T16:06:46.487Z,-1.70
2022-12-12T16:09:26.716Z,-1.80
2022-12-12T16:11:57.393Z,-1.90
2022-12-12T16:14:42.362Z,-1.90
2022-12-12T16:17:23.422Z,-2.00
2022-12-12T16:20:04.301Z,-2.10
2022-12-12T16:22:39.464Z,-2.10
2022-12-12T16:25:16.743Z,-2.10
2022-12-12T16:27:44.748Z,-2.10
2022-12-12T16:30:14.365Z,-2.10
2022-12-12T16:32:41.932Z,-2.20
2022-12-12T16:35:17.473Z,-2.20
2022-12-12T16:37:44.372Z,-2.20
2022-12-12T16:40:16.546Z,-2.30
2022-12-12T16:42:54.493Z,-2.30
2022-12-12T16:45:21.336Z,-2.30
2022-12-12T16:47:47.997Z,-2.40
2022-12-12T16:50:14.946Z,-2.40
2022-12-12T16:52:41.694Z,-2.40
2022-12-12T16:55:20.716Z,-2.40
2022-12-12T16:57:48.629Z,-2.40
2022-12-12T17:00:16.702Z,-2.50
2022-12-12T17:02:44.161Z,-2.50
2022-12-12T17:05:20.826Z,-2.50
2022-12-12T17:07:47.736Z,-2.60
2022-12-12T17:10:14.881Z,-2.60
2022-12-12T17:12:41.601Z,-2.70
2022-12-12T17:15:21.269Z,-2.70
2022-12-12T17:17:47.870Z,-2.70
2022-12-12T17:20:14.814Z,-2.70
2022-12-12T17:22:42.189Z,-2.60
2022-12-12T17:25:09.415Z,-2.60
2022-12-12T17:27:36.501Z,-2.60
2022-12-12T17:30:05.179Z,-2.60
2022-12-12T17:32:31.819Z,-2.60
2022-12-12T17:34:58.925Z,-2.60
2022-12-12T17:37:25.783Z,-2.60
2022-12-12T17:39:52.849Z,-2.60
2022-12-12T17:42:19.531Z,-2.70
2022-12-12T17:44:46.487Z,-2.70
2022-12-12T17:47:13.076Z,-2.80
2022-12-12T17:49:40.368Z,-2.90
2022-12-12T17:52:06.970Z,-2.90
2022-12-12T17:54:35.176Z,-2.90
2022-12-12T17:57:01.788Z,-3.00
2022-12-12T17:59:28.975Z,-3.10
2022-12-12T18:01:55.623Z,-3.10
2022-12-12T18:04:28.065Z,-3.20
2022-12-12T18:06:55.369Z,-3.20
2022-12-12T18:09:22.483Z,-3.20
2022-12-12T18:11:49.190Z,-3.20
2022-12-12T18:14:18.740Z,-3.20
2022-12-12T18:16:53.106Z,-3.20
2022-12-12T18:19:22.630Z,-3.20
2022-12-12T18:22:00.875Z,-3.20
2022-12-12T18:24:33.235Z,-3.20
2022-12-12T18:27:01.111Z,-3.20
2022-12-12T18:29:28.563Z,-3.20
2022-12-12T18:31:55.347Z,-3.20
2022-12-12T18:34:22.151Z,-3.20
2022-12-12T18:36:49.630Z,-3.20
2022-12-12T18:39:17.367Z,-3.20
2022-12-12T18:41:44.043Z,-3.20
2022-12-12T18:44:13.776Z,-3.20
2022-12-12T18:46:43.650Z,-3.30
2022-12-12T18:49:15.424Z,-3.30
2022-12-12T18:51:43.642Z,-3.30
2022-12-12T18:54:15.368Z,-3.30
2022-12-12T18:56:43.028Z,-3.30
2022-12-12T18:59:10.402Z,-3.30
2022-12-12T19:01:38.644Z,-3.30
2022-12-12T19:04:13.152Z,-3.40
2022-12-12T19:06:42.985Z,-3.40
2022-12-12T19:09:16.883Z,-3.40
2022-12-12T19:11:44.232Z,-3.40
2022-12-12T19:14:13.552Z,-3.40
2022-12-12T19:16:40.653Z,-3.40
2022-12-12T19:19:09.871Z,-3.40
2022-12-12T19:21:38.287Z,-3.40
2022-12-12T19:24:09.430Z,-3.40
2022-12-12T19:26:37.218Z,-3.50
2022-12-12T19:29:08.192Z,-3.50
2022-12-12T19:31:35.992Z,-3.60
2022-12-12T19:34:05.201Z,-3.60
2022-12-12T19:36:32.304Z,-3.60
2022-12-12T19:39:04.057Z,-3.60
2022-12-12T19:41:30.712Z,-3.70
2022-12-12T19:44:01.856Z,-3.70
2022-12-12T19:46:30.992Z,-3.70
2022-12-12T19:49:03.173Z,-3.70
2022-12-12T19:51:32.510Z,-3.80
2022-12-12T19:54:00.720Z,-3.80
2022-12-12T19:56:33.692Z,-3.80
2022-12-12T19:59:01.860Z,-3.80
2022-12-12T20:01:31.076Z,-3.80
2022-12-12T20:04:07.142Z,-3.80
2022-12-12T20:06:41.018Z,-3.80
2022-12-12T20:09:09.603Z,-3.80
2022-12-12T20:11:37.201Z,-3.80
2022-12-12T20:14:04.895Z,-3.90
2022-12-12T20:16:31.626Z,-3.90
2022-12-12T20:18:59.619Z,-4.00
2022-12-12T20:21:59.648Z,-4.00
2022-12-12T20:24:16.404Z,-4.00
2022-12-12T20:26:43.253Z,-4.00
2022-12-12T20:29:12.538Z,-4.10
2022-12-12T20:31:48.327Z,-4.10
2022-12-12T20:34:17.948Z,-4.10
2022-12-12T20:36:44.703Z,-4.10
2022-12-12T20:39:19.495Z,-4.00
2022-12-12T20:41:46.379Z,-4.10
2022-12-12T20:44:14.487Z,-4.10
2022-12-12T20:46:44.155Z,-4.10
2022-12-12T20:49:15.468Z,-4.10
2022-12-12T20:51:58.661Z,-4.10
2022-12-12T20:54:28.017Z,-4.10
2022-12-12T20:56:54.952Z,-4.10
2022-12-12T20:59:22.756Z,-4.10
2022-12-12T21:01:49.820Z,-4.10
2022-12-12T21:04:16.545Z,-4.10
2022-12-12T21:06:48.623Z,-4.20
2022-12-12T21:09:23.251Z,-4.20
2022-12-12T21:11:52.968Z,-4.20
2022-12-12T21:14:20.035Z,-4.10
2022-12-12T21:16:46.738Z,-4.10
2022-12-12T21:19:14.406Z,-4.10
2022-12-12T21:21:43.709Z,-4.10
2022-12-12T21:24:15.245Z,-4.10
2022-12-12T21:26:43.116Z,-4.10
2022-12-12T21:29:10.017Z,-4.10
2022-12-12T21:31:42.342Z,-4.10
2022-12-12T21:34:13.736Z,-4.10
2022-12-12T21:36:40.393Z,-4.00
2022-12-12T21:39:07.999Z,-4.00
2022-12-12T21:41:35.494Z,-4.00
2022-12-12T21:44:02.212Z,-3.80
2022-12-12T21:46:29.977Z,-3.80
2022-12-12T21:49:35.894Z,-3.80
2022-12-12T21:52:06.126Z,-3.80
2022-12-12T21:54:33.977Z,-3.70
2022-12-12T21:57:01.747Z,-3.70
2022-12-12T21:59:30.057Z,-3.70
2022-12-12T22:01:58.915Z,-3.70
2022-12-12T22:04:26.760Z,-3.70
2022-12-12T22:06:53.423Z,-3.70
2022-12-12T22:09:20.786Z,-3.80
2022-12-12T22:11:48.923Z,-3.90
2022-12-12T22:14:20.234Z,-4.00
2022-12-12T22:16:46.899Z,-4.00
2022-12-12T22:19:15.888Z,-4.00
2022-12-12T22:21:46.136Z,-3.90
2022-12-12T22:24:14.165Z,-4.00
2022-12-12T22:26:43.976Z,-4.00
2022-12-12T22:29:14.345Z,-4.00
2022-12-12T22:31:41.726Z,-4.00
2022-12-12T22:34:19.007Z,-4.00
2022-12-12T22:36:46.600Z,-3.90
2022-12-12T22:39:17.425Z,-3.90
2022-12-12T22:41:44.886Z,-3.90
2022-12-12T22:44:15.140Z,-3.90
2022-12-12T22:46:44.228Z,-3.90
2022-12-12T22:49:14.189Z,-3.90
2022-12-12T22:51:41.405Z,-4.00
2022-12-12T22:54:08.554Z,-4.00
2022-12-12T22:56:37.636Z,-4.00
2022-12-12T22:59:05.966Z,-4.00
2022-12-12T23:01:33.294Z,-4.10
2022-12-12T23:04:00.734Z,-4.10
2022-12-12T23:06:33.343Z,-4.10
2022-12-12T23:09:03.475Z,-4.00
2022-12-12T23:11:30.772Z,-4.00
2022-12-12T23:14:06.839Z,-4.00
2022-12-12T23:16:35.514Z,-4.10
2022-12-12T23:19:05.022Z,-4.10
2022-12-12T23:21:32.407Z,-4.10
2022-12-12T23:23:59.507Z,-4.10
2022-12-12T23:26:29.825Z,-4.10
2022-12-12T23:28:58.983Z,-4.20
2022-12-12T23:31:28.584Z,-4.20
2022-12-12T23:33:57.646Z,-4.20
2022-12-12T23:36:26.088Z,-4.20
2022-12-12T23:39:01.364Z,-4.20
2022-12-12T23:41:28.668Z,-4.20
2022-12-12T23:43:56.516Z,-4.30
2022-12-12T23:46:31.673Z,-4.30
2022-12-12T23:49:01.690Z,-4.30
2022-12-12T23:51:30.966Z,-4.30
2022-12-12T23:54:00.091Z,-4.30
2022-12-12T23:56:27.562Z,-4.30
2022-12-12T23:58:56.560Z,-4.30
